sensor_id;sensor_type;location;lat;lon;timestamp;pressure;altitude;pressure_sealevel;temperature;humidity
75656;BME280;64252;51.094;13.714;2023-03-24T00:02:17;99526.00;;;10.92;84.39
75656;BME280;64252;51.094;13.714;2023-03-24T00:04:43;99527.56;;;10.93;83.88
75656;BME280;64252;51.094;13.714;2023-03-24T00:07:09;99527.97;;;10.95;83.52
75656;BME280;64252;51.094;13.714;2023-03-24T00:09:40;99525.13;;;10.98;84.59
75656;BME280;64252;51.094;13.714;2023-03-24T00:12:07;99525.94;;;10.99;83.86
75656;BME280;64252;51.094;13.714;2023-03-24T00:14:34;99526.72;;;11.03;84.06
75656;BME280;64252;51.094;13.714;2023-03-24T00:17:04;99515.41;;;11.03;83.76
75656;BME280;64252;51.094;13.714;2023-03-24T00:19:31;99513.78;;;11.09;83.28
75656;BME280;64252;51.094;13.714;2023-03-24T00:21:59;99496.38;;;11.14;82.93
75656;BME280;64252;51.094;13.714;2023-03-24T00:24:25;99502.41;;;11.20;81.67
75656;BME280;64252;51.094;13.714;2023-03-24T00:26:50;99503.97;;;11.24;81.81
75656;BME280;64252;51.094;13.714;2023-03-24T00:29:16;99495.88;;;11.30;81.44
75656;BME280;64252;51.094;13.714;2023-03-24T00:31:43;99496.63;;;11.34;81.23
75656;BME280;64252;51.094;13.714;2023-03-24T00:34:09;99494.63;;;11.34;81.47
75656;BME280;64252;51.094;13.714;2023-03-24T00:36:35;99485.72;;;11.32;81.26
75656;BME280;64252;51.094;13.714;2023-03-24T00:39:03;99484.56;;;11.30;80.98
75656;BME280;64252;51.094;13.714;2023-03-24T00:41:29;99496.63;;;11.30;81.53
75656;BME280;64252;51.094;13.714;2023-03-24T00:43:59;99491.78;;;11.31;81.55
75656;BME280;64252;51.094;13.714;2023-03-24T00:46:28;99490.19;;;11.33;81.35
75656;BME280;64252;51.094;13.714;2023-03-24T00:49:00;99483.72;;;11.33;81.06
75656;BME280;64252;51.094;13.714;2023-03-24T00:51:29;99484.53;;;11.33;81.62
75656;BME280;64252;51.094;13.714;2023-03-24T00:53:56;99480.47;;;11.34;80.85
75656;BME280;64252;51.094;13.714;2023-03-24T00:56:25;99476.41;;;11.35;80.97
75656;BME280;64252;51.094;13.714;2023-03-24T00:58:52;99470.00;;;11.31;81.47
75656;BME280;64252;51.094;13.714;2023-03-24T01:01:19;99462.34;;;11.28;81.48
75656;BME280;64252;51.094;13.714;2023-03-24T01:03:47;99460.34;;;11.25;81.69
75656;BME280;64252;51.094;13.714;2023-03-24T01:06:16;99461.19;;;11.22;80.95
75656;BME280;64252;51.094;13.714;2023-03-24T01:08:44;99462.03;;;11.19;82.35
75656;BME280;64252;51.094;13.714;2023-03-24T01:11:10;99466.91;;;11.15;81.65
75656;BME280;64252;51.094;13.714;2023-03-24T01:13:37;99455.59;;;11.15;81.51
75656;BME280;64252;51.094;13.714;2023-03-24T01:16:04;99458.03;;;11.13;82.37
75656;BME280;64252;51.094;13.714;2023-03-24T01:18:31;99449.59;;;11.10;82.77
75656;BME280;64252;51.094;13.714;2023-03-24T01:20:56;99452.44;;;11.06;83.97
75656;BME280;64252;51.094;13.714;2023-03-24T01:23:24;99455.66;;;11.08;83.88
75656;BME280;64252;51.094;13.714;2023-03-24T01:25:51;99441.16;;;11.02;84.13
75656;BME280;64252;51.094;13.714;2023-03-24T01:28:20;99441.19;;;10.99;83.59
75656;BME280;64252;51.094;13.714;2023-03-24T01:30:50;99436.38;;;10.96;83.08
75656;BME280;64252;51.094;13.714;2023-03-24T01:33:16;99438.00;;;10.93;83.11
75656;BME280;64252;51.094;13.714;2023-03-24T01:35:42;99432.78;;;10.92;83.14
75656;BME280;64252;51.094;13.714;2023-03-24T01:38:10;99434.00;;;10.91;84.16
75656;BME280;64252;51.094;13.714;2023-03-24T01:40:38;99423.50;;;10.88;83.95
75656;BME280;64252;51.094;13.714;2023-03-24T01:43:05;99427.13;;;10.88;83.48
75656;BME280;64252;51.094;13.714;2023-03-24T01:48:52;99421.13;;;10.86;84.30
75656;BME280;64252;51.094;13.714;2023-03-24T01:53:32;99430.84;;;10.82;83.93
75656;BME280;64252;51.094;13.714;2023-03-24T01:56:00;99426.81;;;10.79;83.71
75656;BME280;64252;51.094;13.714;2023-03-24T01:58:32;99420.34;;;10.79;83.79
75656;BME280;64252;51.094;13.714;2023-03-24T02:01:14;99412.28;;;10.81;84.55
75656;BME280;64252;51.094;13.714;2023-03-24T02:04:07;99421.16;;;10.83;84.75
75656;BME280;64252;51.094;13.714;2023-03-24T02:06:37;99421.16;;;10.83;83.90
75656;BME280;64252;51.094;13.714;2023-03-24T02:09:07;99412.25;;;10.84;85.06
75656;BME280;64252;51.094;13.714;2023-03-24T02:11:34;99420.34;;;10.82;85.87
75656;BME280;64252;51.094;13.714;2023-03-24T02:14:04;99418.69;;;10.85;84.92
75656;BME280;64252;51.094;13.714;2023-03-24T02:44:26;99385.91;;;10.98;86.66
75656;BME280;64252;51.094;13.714;2023-03-24T02:47:02;99393.56;;;10.97;87.67
75656;BME280;64252;51.094;13.714;2023-03-24T02:49:47;99391.56;;;10.98;87.35
75656;BME280;64252;51.094;13.714;2023-03-24T02:52:38;99383.88;;;10.98;87.58
75656;BME280;64252;51.094;13.714;2023-03-24T02:55:19;99384.69;;;10.99;86.79
75656;BME280;64252;51.094;13.714;2023-03-24T02:57:56;99377.44;;;10.98;86.49
75656;BME280;64252;51.094;13.714;2023-03-24T03:00:41;99374.25;;;10.96;86.18
75656;BME280;64252;51.094;13.714;2023-03-24T03:03:26;99365.38;;;10.94;85.83
75656;BME280;64252;51.094;13.714;2023-03-24T03:06:28;99367.38;;;10.93;86.50
75656;BME280;64252;51.094;13.714;2023-03-24T03:08:59;99368.22;;;10.90;86.77
75656;BME280;64252;51.094;13.714;2023-03-24T03:11:27;99375.91;;;10.90;86.82
75656;BME280;64252;51.094;13.714;2023-03-24T03:14:04;99371.09;;;10.87;88.22
75656;BME280;64252;51.094;13.714;2023-03-24T03:19:00;99376.75;;;10.87;88.19
75656;BME280;64252;51.094;13.714;2023-03-24T03:21:29;99369.47;;;10.86;89.10
75656;BME280;64252;51.094;13.714;2023-03-24T03:24:01;99369.44;;;10.89;89.28
75656;BME280;64252;51.094;13.714;2023-03-24T03:26:30;99373.47;;;10.92;87.99
75656;BME280;64252;51.094;13.714;2023-03-24T03:29:02;99375.00;;;11.00;87.37
75656;BME280;64252;51.094;13.714;2023-03-24T03:31:40;99370.53;;;11.06;87.66
75656;BME280;64252;51.094;13.714;2023-03-24T03:34:19;99365.25;;;11.08;87.23
75656;BME280;64252;51.094;13.714;2023-03-24T03:36:56;99358.78;;;11.08;87.37
75656;BME280;64252;51.094;13.714;2023-03-24T03:39:30;99363.63;;;11.11;87.42
75656;BME280;64252;51.094;13.714;2023-03-24T03:42:02;99356.31;;;11.13;88.36
75656;BME280;64252;51.094;13.714;2023-03-24T03:44:30;99338.56;;;11.13;89.00
75656;BME280;64252;51.094;13.714;2023-03-24T03:46:55;99342.19;;;11.13;89.41
75656;BME280;64252;51.094;13.714;2023-03-24T03:49:31;99334.13;;;11.12;88.63
75656;BME280;64252;51.094;13.714;2023-03-24T03:51:56;99327.66;;;11.11;88.87
75656;BME280;64252;51.094;13.714;2023-03-24T03:54:23;99330.94;;;11.10;89.36
75656;BME280;64252;51.094;13.714;2023-03-24T03:56:51;99346.63;;;11.14;88.94
75656;BME280;64252;51.094;13.714;2023-03-24T03:59:36;99332.50;;;11.14;89.89
75656;BME280;64252;51.094;13.714;2023-03-24T04:02:40;99331.28;;;11.15;91.17
75656;BME280;64252;51.094;13.714;2023-03-24T04:15:01;99337.44;;;11.03;94.19
75656;BME280;64252;51.094;13.714;2023-03-24T04:23:51;99325.78;;;10.97;94.52
75656;BME280;64252;51.094;13.714;2023-03-24T04:26:41;99322.97;;;10.97;94.34
75656;BME280;64252;51.094;13.714;2023-03-24T04:29:22;99329.84;;;10.93;94.80
75656;BME280;64252;51.094;13.714;2023-03-24T04:34:37;99334.75;;;10.89;96.52
75656;BME280;64252;51.094;13.714;2023-03-24T04:37:24;99319.44;;;10.86;96.25
75656;BME280;64252;51.094;13.714;2023-03-24T04:39:56;99318.63;;;10.86;97.11
75656;BME280;64252;51.094;13.714;2023-03-24T04:42:36;99311.38;;;10.85;97.41
75656;BME280;64252;51.094;13.714;2023-03-24T04:45:04;99306.94;;;10.84;96.75
75656;BME280;64252;51.094;13.714;2023-03-24T04:47:53;99302.53;;;10.83;96.96
75656;BME280;64252;51.094;13.714;2023-03-24T04:50:39;99296.91;;;10.79;98.86
75656;BME280;64252;51.094;13.714;2023-03-24T04:53:13;99292.88;;;10.80;99.21
75656;BME280;64252;51.094;13.714;2023-03-24T04:58:20;99292.50;;;10.75;99.57
75656;BME280;64252;51.094;13.714;2023-03-24T05:00:47;99275.19;;;10.73;99.42
75656;BME280;64252;51.094;13.714;2023-03-24T05:03:15;99277.97;;;10.76;98.30
75656;BME280;64252;51.094;13.714;2023-03-24T05:05:44;99283.22;;;10.78;98.92
75656;BME280;64252;51.094;13.714;2023-03-24T05:08:10;99277.13;;;10.79;98.87
75656;BME280;64252;51.094;13.714;2023-03-24T05:10:37;99266.66;;;10.80;99.92
75656;BME280;64252;51.094;13.714;2023-03-24T05:13:06;99266.28;;;10.78;99.30
75656;BME280;64252;51.094;13.714;2023-03-24T05:15:43;99262.22;;;10.79;99.69
75656;BME280;64252;51.094;13.714;2023-03-24T05:18:26;99270.28;;;10.80;98.98
75656;BME280;64252;51.094;13.714;2023-03-24T05:20:52;99267.88;;;10.79;99.20
75656;BME280;64252;51.094;13.714;2023-03-24T05:23:20;99270.69;;;10.79;99.00
75656;BME280;64252;51.094;13.714;2023-03-24T05:25:47;99258.19;;;10.80;98.47
75656;BME280;64252;51.094;13.714;2023-03-24T05:28:15;99262.16;;;10.86;97.17
75656;BME280;64252;51.094;13.714;2023-03-24T05:30:40;99271.81;;;10.88;96.88
75656;BME280;64252;51.094;13.714;2023-03-24T05:33:26;99260.09;;;10.90;96.94
75656;BME280;64252;51.094;13.714;2023-03-24T05:35:52;99268.56;;;10.90;96.82
75656;BME280;64252;51.094;13.714;2023-03-24T05:38:19;99248.38;;;10.91;96.68
75656;BME280;64252;51.094;13.714;2023-03-24T05:40:48;99243.75;;;11.08;94.06
75656;BME280;64252;51.094;13.714;2023-03-24T05:43:20;99242.53;;;11.09;94.17
75656;BME280;64252;51.094;13.714;2023-03-24T05:45:57;99237.25;;;11.11;93.71
75656;BME280;64252;51.094;13.714;2023-03-24T05:48:33;99238.41;;;11.17;93.28
75656;BME280;64252;51.094;13.714;2023-03-24T05:51:21;99238.34;;;11.24;91.67
75656;BME280;64252;51.094;13.714;2023-03-24T05:53:57;99235.88;;;11.26;92.49
75656;BME280;64252;51.094;13.714;2023-03-24T05:56:29;99228.63;;;11.25;92.19
75656;BME280;64252;51.094;13.714;2023-03-24T05:59:05;99222.84;;;11.36;90.81
75656;BME280;64252;51.094;13.714;2023-03-24T06:02:06;99216.31;;;11.42;89.87
75656;BME280;64252;51.094;13.714;2023-03-24T06:04:43;99228.75;;;11.49;89.99
75656;BME280;64252;51.094;13.714;2023-03-24T06:07:14;99226.69;;;11.53;89.35
75656;BME280;64252;51.094;13.714;2023-03-24T06:09:43;99224.19;;;11.58;88.63
75656;BME280;64252;51.094;13.714;2023-03-24T06:15:03;99211.09;;;11.68;87.40
75656;BME280;64252;51.094;13.714;2023-03-24T06:17:30;99212.28;;;11.70;88.12
75656;BME280;64252;51.094;13.714;2023-03-24T06:19:57;99215.50;;;11.72;87.27
75656;BME280;64252;51.094;13.714;2023-03-24T06:22:43;99216.31;;;11.73;86.98
75656;BME280;64252;51.094;13.714;2023-03-24T06:25:13;99218.31;;;11.76;87.40
75656;BME280;64252;51.094;13.714;2023-03-24T06:27:46;99209.44;;;11.74;88.84
75656;BME280;64252;51.094;13.714;2023-03-24T06:30:16;99197.34;;;11.70;88.57
75656;BME280;64252;51.094;13.714;2023-03-24T06:32:43;99194.13;;;11.68;89.28
75656;BME280;64252;51.094;13.714;2023-03-24T06:35:13;99189.25;;;11.72;88.82
75656;BME280;64252;51.094;13.714;2023-03-24T06:37:49;99198.97;;;11.71;90.41
75656;BME280;64252;51.094;13.714;2023-03-24T06:40:22;99198.97;;;11.71;88.98
75656;BME280;64252;51.094;13.714;2023-03-24T06:43:04;99190.84;;;11.73;88.35
75656;BME280;64252;51.094;13.714;2023-03-24T06:45:33;99194.06;;;11.75;88.17
75656;BME280;64252;51.094;13.714;2023-03-24T06:47:59;99196.44;;;11.80;87.94
75656;BME280;64252;51.094;13.714;2023-03-24T06:50:25;99200.41;;;11.82;88.16
75656;BME280;64252;51.094;13.714;2023-03-24T06:52:54;99205.19;;;11.89;86.62
75656;BME280;64252;51.094;13.714;2023-03-24T06:55:25;99199.03;;;11.94;88.05
75656;BME280;64252;51.094;13.714;2023-03-24T06:57:54;99199.41;;;11.96;87.97
75656;BME280;64252;51.094;13.714;2023-03-24T07:00:32;99192.91;;;11.99;87.62
75656;BME280;64252;51.094;13.714;2023-03-24T07:03:15;99203.00;;;12.00;87.05
75656;BME280;64252;51.094;13.714;2023-03-24T07:05:53;99202.53;;;12.05;87.48
75656;BME280;64252;51.094;13.714;2023-03-24T07:08:20;99192.44;;;12.04;87.60
75656;BME280;64252;51.094;13.714;2023-03-24T07:11:06;99196.00;;;12.08;86.42
75656;BME280;64252;51.094;13.714;2023-03-24T07:13:36;99193.53;;;12.10;86.47
75656;BME280;64252;51.094;13.714;2023-03-24T07:16:03;99197.13;;;12.14;86.05
75656;BME280;64252;51.094;13.714;2023-03-24T07:18:30;99190.22;;;12.15;86.04
75656;BME280;64252;51.094;13.714;2023-03-24T07:20:59;99192.13;;;12.22;85.28
75656;BME280;64252;51.094;13.714;2023-03-24T07:23:26;99193.19;;;12.31;84.69
75656;BME280;64252;51.094;13.714;2023-03-24T07:25:59;99187.53;;;12.31;84.11
75656;BME280;64252;51.094;13.714;2023-03-24T07:28:57;99185.81;;;12.38;84.75
75656;BME280;64252;51.094;13.714;2023-03-24T07:31:34;99186.41;;;12.49;83.77
75656;BME280;64252;51.094;13.714;2023-03-24T07:34:09;99193.19;;;12.55;83.53
75656;BME280;64252;51.094;13.714;2023-03-24T07:36:37;99191.47;;;12.61;83.91
75656;BME280;64252;51.094;13.714;2023-03-24T07:39:06;99184.50;;;12.65;83.74
75656;BME280;64252;51.094;13.714;2023-03-24T07:41:35;99176.59;;;12.76;82.18
75656;BME280;64252;51.094;13.714;2023-03-24T07:44:06;99171.69;;;12.81;82.32
75656;BME280;64252;51.094;13.714;2023-03-24T07:46:35;99174.44;;;12.84;82.19
75656;BME280;64252;51.094;13.714;2023-03-24T07:49:02;99194.63;;;12.86;82.40
75656;BME280;64252;51.094;13.714;2023-03-24T07:51:29;99185.63;;;12.91;81.68
75656;BME280;64252;51.094;13.714;2023-03-24T07:53:57;99179.44;;;12.96;82.24
75656;BME280;64252;51.094;13.714;2023-03-24T07:56:30;99182.28;;;12.96;82.42
75656;BME280;64252;51.094;13.714;2023-03-24T07:58:58;99173.28;;;13.01;82.03
75656;BME280;64252;51.094;13.714;2023-03-24T08:01:55;99187.31;;;13.08;81.37
75656;BME280;64252;51.094;13.714;2023-03-24T08:04:51;99177.88;;;13.15;81.38
75656;BME280;64252;51.094;13.714;2023-03-24T08:07:41;99171.19;;;13.25;79.71
75656;BME280;64252;51.094;13.714;2023-03-24T08:10:13;99173.13;;;13.48;78.60
75656;BME280;64252;51.094;13.714;2023-03-24T08:12:41;99183.44;;;13.58;78.36
75656;BME280;64252;51.094;13.714;2023-03-24T08:15:08;99184.81;;;13.70;77.58
75656;BME280;64252;51.094;13.714;2023-03-24T08:17:35;99179.59;;;13.84;77.18
75656;BME280;64252;51.094;13.714;2023-03-24T08:20:01;99180.16;;;13.95;76.49
75656;BME280;64252;51.094;13.714;2023-03-24T08:22:38;99179.56;;;14.20;74.70
75656;BME280;64252;51.094;13.714;2023-03-24T08:25:04;99178.56;;;14.27;74.46
75656;BME280;64252;51.094;13.714;2023-03-24T08:27:31;99180.66;;;14.26;75.41
75656;BME280;64252;51.094;13.714;2023-03-24T08:29:56;99172.03;;;14.30;74.92
75656;BME280;64252;51.094;13.714;2023-03-24T08:32:22;99168.50;;;14.42;74.96
75656;BME280;64252;51.094;13.714;2023-03-24T08:34:48;99170.78;;;14.47;73.71
75656;BME280;64252;51.094;13.714;2023-03-24T08:37:13;99169.34;;;14.55;74.13
75656;BME280;64252;51.094;13.714;2023-03-24T08:39:39;99162.97;;;14.67;73.86
75656;BME280;64252;51.094;13.714;2023-03-24T08:42:04;99178.03;;;14.80;73.24
75656;BME280;64252;51.094;13.714;2023-03-24T08:44:30;99178.19;;;14.89;72.63
75656;BME280;64252;51.094;13.714;2023-03-24T08:46:56;99181.28;;;14.95;72.34
75656;BME280;64252;51.094;13.714;2023-03-24T08:49:21;99174.25;;;15.00;71.74
75656;BME280;64252;51.094;13.714;2023-03-24T08:51:48;99164.63;;;15.10;69.75
75656;BME280;64252;51.094;13.714;2023-03-24T08:54:14;99162.47;;;15.14;70.37
75656;BME280;64252;51.094;13.714;2023-03-24T08:56:40;99157.47;;;15.18;69.67
75656;BME280;64252;51.094;13.714;2023-03-24T08:59:06;99165.91;;;15.21;70.20
75656;BME280;64252;51.094;13.714;2023-03-24T09:01:32;99162.06;;;15.28;69.80
75656;BME280;64252;51.094;13.714;2023-03-24T09:04:00;99168.44;;;15.32;70.51
75656;BME280;64252;51.094;13.714;2023-03-24T09:06:26;99169.06;;;15.40;70.36
75656;BME280;64252;51.094;13.714;2023-03-24T09:08:53;99180.31;;;15.43;69.95
75656;BME280;64252;51.094;13.714;2023-03-24T09:11:20;99181.00;;;15.47;69.67
75656;BME280;64252;51.094;13.714;2023-03-24T09:13:47;99166.53;;;15.42;71.94
75656;BME280;64252;51.094;13.714;2023-03-24T09:16:14;99163.44;;;15.36;71.74
75656;BME280;64252;51.094;13.714;2023-03-24T09:18:41;99169.81;;;15.40;70.89
75656;BME280;64252;51.094;13.714;2023-03-24T09:21:08;99164.13;;;15.40;70.71
75656;BME280;64252;51.094;13.714;2023-03-24T09:23:35;99176.56;;;15.46;69.71
75656;BME280;64252;51.094;13.714;2023-03-24T09:26:02;99167.75;;;15.57;68.54
75656;BME280;64252;51.094;13.714;2023-03-24T09:28:28;99190.88;;;15.71;69.27
75656;BME280;64252;51.094;13.714;2023-03-24T09:31:02;99183.34;;;15.77;67.69
75656;BME280;64252;51.094;13.714;2023-03-24T09:33:28;99189.03;;;15.77;68.42
75656;BME280;64252;51.094;13.714;2023-03-24T09:35:55;99190.19;;;15.80;68.16
75656;BME280;64252;51.094;13.714;2023-03-24T09:38:22;99181.91;;;15.86;69.07
75656;BME280;64252;51.094;13.714;2023-03-24T09:40:55;99187.91;;;15.88;67.47
75656;BME280;64252;51.094;13.714;2023-03-24T09:46:40;99193.53;;;15.91;66.83
75656;BME280;64252;51.094;13.714;2023-03-24T09:49:03;99200.56;;;15.87;67.27
75656;BME280;64252;51.094;13.714;2023-03-24T09:51:34;99187.91;;;15.88;66.70
75656;BME280;64252;51.094;13.714;2023-03-24T09:54:23;99194.44;;;16.01;67.20
75656;BME280;64252;51.094;13.714;2023-03-24T09:56:56;99187.81;;;16.16;66.66
75656;BME280;64252;51.094;13.714;2023-03-24T10:01:53;99189.94;;;16.50;64.75
75656;BME280;64252;51.094;13.714;2023-03-24T10:04:21;99190.16;;;16.68;64.63
75656;BME280;64252;51.094;13.714;2023-03-24T10:06:52;99180.66;;;16.84;63.00
75656;BME280;64252;51.094;13.714;2023-03-24T10:09:25;99191.34;;;16.93;62.70
75656;BME280;64252;51.094;13.714;2023-03-24T10:20:44;99182.28;;;16.73;60.23
75656;BME280;64252;51.094;13.714;2023-03-24T10:25:55;99167.56;;;16.74;61.80
75656;BME280;64252;51.094;13.714;2023-03-24T10:28:35;99173.22;;;16.87;61.98
75656;BME280;64252;51.094;13.714;2023-03-24T10:31:07;99168.00;;;16.85;60.61
75656;BME280;64252;51.094;13.714;2023-03-24T10:33:39;99175.09;;;16.81;59.94
75656;BME280;64252;51.094;13.714;2023-03-24T10:36:16;99177.69;;;16.88;60.93
75656;BME280;64252;51.094;13.714;2023-03-24T10:38:43;99176.56;;;16.85;59.98
75656;BME280;64252;51.094;13.714;2023-03-24T10:41:24;99176.78;;;16.78;60.74
75656;BME280;64252;51.094;13.714;2023-03-24T10:43:51;99187.31;;;16.56;60.34
75656;BME280;64252;51.094;13.714;2023-03-24T10:46:22;99192.34;;;16.52;61.44
75656;BME280;64252;51.094;13.714;2023-03-24T10:48:54;99187.44;;;16.52;60.86
75656;BME280;64252;51.094;13.714;2023-03-24T10:51:31;99191.53;;;16.51;61.44
75656;BME280;64252;51.094;13.714;2023-03-24T10:56:48;99189.22;;;16.72;59.57
75656;BME280;64252;51.094;13.714;2023-03-24T10:59:35;99176.56;;;16.85;59.47
75656;BME280;64252;51.094;13.714;2023-03-24T11:02:32;99188.91;;;17.04;59.72
75656;BME280;64252;51.094;13.714;2023-03-24T11:04:59;99184.34;;;17.06;58.41
75656;BME280;64252;51.094;13.714;2023-03-24T11:07:34;99190.25;;;17.12;58.85
75656;BME280;64252;51.094;13.714;2023-03-24T11:15:26;99197.28;;;17.20;59.83
75656;BME280;64252;51.094;13.714;2023-03-24T11:18:14;99210.28;;;16.99;59.29
75656;BME280;64252;51.094;13.714;2023-03-24T11:21:00;99221.56;;;16.90;59.26
75656;BME280;64252;51.094;13.714;2023-03-24T11:23:39;99217.94;;;16.90;59.88
75656;BME280;64252;51.094;13.714;2023-03-24T11:26:15;99221.25;;;16.88;60.54
75656;BME280;64252;51.094;13.714;2023-03-24T11:28:52;99222.28;;;16.82;59.90
75656;BME280;64252;51.094;13.714;2023-03-24T11:31:25;99231.41;;;16.89;60.51
75656;BME280;64252;51.094;13.714;2023-03-24T11:34:15;99217.44;;;17.04;61.07
75656;BME280;64252;51.094;13.714;2023-03-24T11:36:55;99212.03;;;17.40;59.75
75656;BME280;64252;51.094;13.714;2023-03-24T11:39:29;99208.72;;;17.64;59.26
75656;BME280;64252;51.094;13.714;2023-03-24T11:47:29;99205.06;;;17.63;58.03
75656;BME280;64252;51.094;13.714;2023-03-24T11:50:19;99209.41;;;17.68;59.10
75656;BME280;64252;51.094;13.714;2023-03-24T11:53:00;99214.56;;;17.82;58.99
75656;BME280;64252;51.094;13.714;2023-03-24T11:55:50;99208.78;;;17.73;58.59
75656;BME280;64252;51.094;13.714;2023-03-24T11:58:35;99204.28;;;17.63;58.42
75656;BME280;64252;51.094;13.714;2023-03-24T12:01:35;99205.00;;;17.54;58.43
75656;BME280;64252;51.094;13.714;2023-03-24T12:15:21;99179.03;;;18.23;58.08
75656;BME280;64252;51.094;13.714;2023-03-24T12:18:03;99156.66;;;18.21;57.00
75656;BME280;64252;51.094;13.714;2023-03-24T12:28:35;99169.44;;;17.46;58.47
75656;BME280;64252;51.094;13.714;2023-03-24T12:31:18;99170.59;;;17.14;59.28
75656;BME280;64252;51.094;13.714;2023-03-24T12:34:12;99171.25;;;16.96;59.77
75656;BME280;64252;51.094;13.714;2023-03-24T12:36:57;99161.81;;;16.87;59.94
75656;BME280;64252;51.094;13.714;2023-03-24T12:39:31;99169.50;;;16.77;59.91
75656;BME280;64252;51.094;13.714;2023-03-24T12:42:12;99165.53;;;16.75;60.59
75656;BME280;64252;51.094;13.714;2023-03-24T12:50:23;99172.03;;;16.62;60.15
75656;BME280;64252;51.094;13.714;2023-03-24T12:55:44;99162.56;;;16.53;61.52
75656;BME280;64252;51.094;13.714;2023-03-24T13:04:25;99155.28;;;16.64;61.06
75656;BME280;64252;51.094;13.714;2023-03-24T13:07:04;99150.25;;;16.68;61.61
75656;BME280;64252;51.094;13.714;2023-03-24T13:15:25;99149.78;;;16.57;62.33
75656;BME280;64252;51.094;13.714;2023-03-24T13:26:25;99160.38;;;16.10;64.89
75656;BME280;64252;51.094;13.714;2023-03-24T13:31:59;99148.41;;;15.90;66.09
75656;BME280;64252;51.094;13.714;2023-03-24T13:34:40;99148.75;;;15.92;67.40
75656;BME280;64252;51.094;13.714;2023-03-24T13:37:22;99144.88;;;15.86;67.60
75656;BME280;64252;51.094;13.714;2023-03-24T13:39:59;99147.06;;;15.82;67.45
75656;BME280;64252;51.094;13.714;2023-03-24T13:42:32;99152.97;;;15.74;67.68
75656;BME280;64252;51.094;13.714;2023-03-24T13:45:03;99153.19;;;15.67;68.27
75656;BME280;64252;51.094;13.714;2023-03-24T13:51:02;99152.81;;;14.82;69.23
75656;BME280;64252;51.094;13.714;2023-03-24T14:06:04;99273.59;;;12.61;90.28
75656;BME280;64252;51.094;13.714;2023-03-24T14:08:52;99277.22;;;11.81;88.51
75656;BME280;64252;51.094;13.714;2023-03-24T14:14:17;99294.38;;;10.92;92.02
75656;BME280;64252;51.094;13.714;2023-03-24T14:19:34;99303.75;;;10.82;93.61
75656;BME280;64252;51.094;13.714;2023-03-24T14:24:57;99302.59;;;10.76;92.23
75656;BME280;64252;51.094;13.714;2023-03-24T14:27:37;99309.09;;;10.73;92.26
75656;BME280;64252;51.094;13.714;2023-03-24T14:33:12;99316.38;;;10.67;91.25
75656;BME280;64252;51.094;13.714;2023-03-24T14:35:47;99314.00;;;10.62;91.21
75656;BME280;64252;51.094;13.714;2023-03-24T14:40:42;99309.97;;;10.63;91.98
75656;BME280;64252;51.094;13.714;2023-03-24T14:43:25;99314.78;;;10.66;92.65
75656;BME280;64252;51.094;13.714;2023-03-24T14:46:00;99307.06;;;10.70;91.20
75656;BME280;64252;51.094;13.714;2023-03-24T14:49:01;99315.19;;;10.64;91.45
75656;BME280;64252;51.094;13.714;2023-03-24T14:51:41;99314.78;;;10.66;91.89
75656;BME280;64252;51.094;13.714;2023-03-24T14:54:18;99318.00;;;10.64;91.81
75656;BME280;64252;51.094;13.714;2023-03-24T14:56:51;99323.66;;;10.64;92.10
75656;BME280;64252;51.094;13.714;2023-03-24T14:59:30;99330.06;;;10.72;92.11
75656;BME280;64252;51.094;13.714;2023-03-24T15:02:15;99324.34;;;10.79;93.13
75656;BME280;64252;51.094;13.714;2023-03-24T15:08:16;99310.41;;;11.02;90.47
75656;BME280;64252;51.094;13.714;2023-03-24T15:11:01;99314.94;;;10.96;89.72
75656;BME280;64252;51.094;13.714;2023-03-24T15:13:40;99318.19;;;10.91;92.08
75656;BME280;64252;51.094;13.714;2023-03-24T15:18:42;99324.41;;;10.72;93.25
75656;BME280;64252;51.094;13.714;2023-03-24T15:21:14;99313.56;;;10.67;93.83
75656;BME280;64252;51.094;13.714;2023-03-24T15:23:45;99317.34;;;10.49;97.23
75656;BME280;64252;51.094;13.714;2023-03-24T15:26:12;99310.09;;;10.48;97.39
75656;BME280;64252;51.094;13.714;2023-03-24T15:28:39;99302.44;;;10.45;95.92
75656;BME280;64252;51.094;13.714;2023-03-24T15:31:05;99291.53;;;10.47;98.47
75656;BME280;64252;51.094;13.714;2023-03-24T15:33:40;99296.28;;;10.57;97.97
75656;BME280;64252;51.094;13.714;2023-03-24T15:36:13;99279.38;;;10.57;97.72
75656;BME280;64252;51.094;13.714;2023-03-24T15:38:45;99286.69;;;10.48;96.86
75656;BME280;64252;51.094;13.714;2023-03-24T15:41:12;99302.78;;;10.54;96.14
75656;BME280;64252;51.094;13.714;2023-03-24T15:43:59;99280.13;;;10.62;96.15
75656;BME280;64252;51.094;13.714;2023-03-24T15:46:29;99253.56;;;10.55;95.71
75656;BME280;64252;51.094;13.714;2023-03-24T15:48:57;99238.63;;;10.59;94.36
75656;BME280;64252;51.094;13.714;2023-03-24T15:51:45;99255.00;;;10.78;96.47
75656;BME280;64252;51.094;13.714;2023-03-24T15:54:23;99259.56;;;11.02;95.08
75656;BME280;64252;51.094;13.714;2023-03-24T15:59:36;99260.56;;;11.22;90.92
75656;BME280;64252;51.094;13.714;2023-03-24T16:02:22;99256.13;;;11.21;94.55
75656;BME280;64252;51.094;13.714;2023-03-24T16:04:56;99255.09;;;11.05;92.19
75656;BME280;64252;51.094;13.714;2023-03-24T16:07:27;99258.00;;;10.97;94.61
75656;BME280;64252;51.094;13.714;2023-03-24T16:09:57;99249.34;;;10.78;90.20
75656;BME280;64252;51.094;13.714;2023-03-24T16:12:29;99240.97;;;10.67;91.55
75656;BME280;64252;51.094;13.714;2023-03-24T16:14:56;99255.50;;;10.66;89.31
75656;BME280;64252;51.094;13.714;2023-03-24T16:17:24;99248.22;;;10.65;92.97
75656;BME280;64252;51.094;13.714;2023-03-24T16:19:50;99247.16;;;10.51;92.14
75656;BME280;64252;51.094;13.714;2023-03-24T16:22:17;99261.66;;;10.50;92.29